createdAt,value
2018-12-13T00:00:59.556Z,1021.19
2018-12-13T00:01:59.536Z,1021.13
2018-12-13T00:02:59.535Z,1021.17
2018-12-13T00:03:59.511Z,1021.18
2018-12-13T00:04:59.497Z,1021.14
2018-12-13T00:05:59.499Z,1021.16
2018-12-13T00:06:59.482Z,1021.17
2018-12-13T00:07:59.505Z,1021.09
2018-12-13T00:08:59.488Z,1021.17
2018-12-13T00:09:59.466Z,1021.12
2018-12-13T00:10:59.433Z,1021.09
2018-12-13T00:11:59.426Z,1021.09
2018-12-13T00:12:59.420Z,1021.12
2018-12-13T00:13:59.407Z,1021.09
2018-12-13T00:14:59.410Z,1021.11
2018-12-13T00:15:59.388Z,1021.11
2018-12-13T00:16:59.374Z,1021.07
2018-12-13T00:17:59.384Z,1021.11
2018-12-13T00:18:59.353Z,1021.06
2018-12-13T00:19:59.337Z,1021.08
2018-12-13T00:20:59.349Z,1021.09
2018-12-13T00:21:59.391Z,1021.05
2018-12-13T00:22:59.352Z,1021.11
2018-12-13T00:23:59.303Z,1021.06
2018-12-13T00:24:59.284Z,1021.06
2018-12-13T00:25:59.274Z,1021.05
2018-12-13T00:26:59.266Z,1021.06
2018-12-13T00:27:59.286Z,1021.09
2018-12-13T00:28:59.247Z,1021.08
2018-12-13T00:29:59.233Z,1021.02
2018-12-13T00:30:59.249Z,1021.08
2018-12-13T00:31:59.215Z,1021.07
2018-12-13T00:32:59.198Z,1021.07
2018-12-13T00:33:59.201Z,1021.06
2018-12-13T00:34:59.174Z,1021.08
2018-12-13T00:35:59.176Z,1021.01
2018-12-13T00:36:59.156Z,1021.04
2018-12-13T00:37:59.151Z,1021.07
2018-12-13T00:38:59.156Z,1021.06
2018-12-13T00:39:59.138Z,1021.09
2018-12-13T00:40:59.133Z,1021.09
2018-12-13T00:41:59.177Z,1021.07
2018-12-13T00:42:59.133Z,1021.04
2018-12-13T00:43:59.157Z,1021.10
2018-12-13T00:44:59.085Z,1021.07
2018-12-13T00:45:59.062Z,1021.07
2018-12-13T00:46:59.059Z,1021.09
2018-12-13T00:47:59.052Z,1021.09
2018-12-13T00:48:59.199Z,1021.10
2018-12-13T00:49:59.022Z,1021.05
2018-12-13T00:50:59.009Z,1021.06
2018-12-13T00:51:58.996Z,1021.10
2018-12-13T00:52:58.992Z,1021.05
2018-12-13T00:53:58.995Z,1021.09
2018-12-13T00:54:58.967Z,1021.11
2018-12-13T00:55:58.959Z,1021.06
2018-12-13T00:56:58.952Z,1021.11
2018-12-13T00:57:58.943Z,1021.04
2018-12-13T00:58:58.950Z,1021.06
2018-12-13T00:59:58.912Z,1021.09
2018-12-13T01:00:58.913Z,1021.11
2018-12-13T01:01:58.938Z,1021.12
2018-12-13T01:02:58.890Z,1021.07
2018-12-13T01:03:58.898Z,1021.05
2018-12-13T01:04:58.880Z,1021.05
2018-12-13T01:05:58.858Z,1021.04
2018-12-13T01:06:58.872Z,1021.08
2018-12-13T01:07:58.864Z,1021.08
2018-12-13T01:08:58.861Z,1021.05
2018-12-13T01:09:58.830Z,1021.03
2018-12-13T01:10:58.808Z,1021.03
2018-12-13T01:11:58.796Z,1021.05
2018-12-13T01:12:58.780Z,1021.11
2018-12-13T01:13:58.795Z,1021.05
2018-12-13T01:14:58.771Z,1021.07
2018-12-13T01:15:58.749Z,1021.07
2018-12-13T01:16:58.740Z,1021.06
2018-12-13T01:17:58.732Z,1021.08
2018-12-13T01:18:58.712Z,1021.09
2018-12-13T01:19:58.760Z,1021.10
2018-12-13T01:20:58.694Z,1021.04
2018-12-13T01:21:58.695Z,1021.08
2018-12-13T01:22:58.683Z,1021.06
2018-12-13T01:23:58.664Z,1021.05
2018-12-13T01:24:58.667Z,1021.06
2018-12-13T01:25:58.648Z,1021.07
2018-12-13T01:26:58.637Z,1021.03
2018-12-13T01:27:58.626Z,1021.03
2018-12-13T01:28:58.609Z,1021.03
2018-12-13T01:29:58.632Z,1021.06
2018-12-13T01:30:58.600Z,1021.09
2018-12-13T01:31:58.594Z,1021.08
2018-12-13T01:32:58.570Z,1021.07
2018-12-13T01:33:58.561Z,1021.02
2018-12-13T01:34:58.614Z,1021.00
2018-12-13T01:35:58.536Z,1021.01
2018-12-13T01:36:58.519Z,1020.99
2018-12-13T01:37:58.521Z,1020.98
2018-12-13T01:38:58.504Z,1020.98
2018-12-13T01:39:58.503Z,1020.92
2018-12-13T01:40:58.493Z,1020.93
2018-12-13T01:41:58.467Z,1021.00
2018-12-13T01:42:58.489Z,1020.98
2018-12-13T01:43:58.458Z,1020.95
2018-12-13T01:44:58.469Z,1020.94
2018-12-13T01:45:58.427Z,1020.95
2018-12-13T01:46:58.422Z,1020.91
2018-12-13T01:47:58.410Z,1020.95
2018-12-13T01:48:58.402Z,1020.94
2018-12-13T01:49:58.399Z,1020.92
2018-12-13T01:50:58.383Z,1020.91
2018-12-13T01:51:58.358Z,1020.88
2018-12-13T01:52:58.389Z,1020.85
2018-12-13T01:53:58.347Z,1020.90
2018-12-13T01:54:58.394Z,1020.84
2018-12-13T01:55:58.343Z,1020.85
2018-12-13T01:56:58.310Z,1020.90
2018-12-13T01:57:58.298Z,1020.84
2018-12-13T01:58:58.294Z,1020.87
2018-12-13T01:59:58.281Z,1020.87
2018-12-13T02:00:58.291Z,1020.88
2018-12-13T02:01:58.283Z,1020.90
2018-12-13T02:02:58.276Z,1020.88
2018-12-13T02:03:58.235Z,1020.93
2018-12-13T02:04:58.235Z,1020.88
2018-12-13T02:05:58.227Z,1020.83
2018-12-13T02:06:58.815Z,1020.84
2018-12-13T02:07:58.200Z,1020.88
2018-12-13T02:08:58.185Z,1020.86
2018-12-13T02:09:58.171Z,1020.84
2018-12-13T02:10:58.185Z,1020.81
2018-12-13T02:11:58.150Z,1020.83
2018-12-13T02:12:58.138Z,1020.79
2018-12-13T02:13:58.130Z,1020.83
2018-12-13T02:14:58.122Z,1020.77
2018-12-13T02:15:58.119Z,1020.79
2018-12-13T02:16:58.094Z,1020.82
2018-12-13T02:17:58.090Z,1020.80
2018-12-13T02:18:58.073Z,1020.81
2018-12-13T02:19:58.075Z,1020.84
2018-12-13T02:20:58.091Z,1020.81
2018-12-13T02:21:58.042Z,1020.79
2018-12-13T02:22:58.039Z,1020.80
2018-12-13T02:23:58.031Z,1020.78
2018-12-13T02:24:58.016Z,1020.77
2018-12-13T02:25:58.019Z,1020.72
2018-12-13T02:26:57.994Z,1020.74
2018-12-13T02:27:57.982Z,1020.74
2018-12-13T02:28:57.972Z,1020.73
2018-12-13T02:29:57.963Z,1020.73
2018-12-13T02:30:57.969Z,1020.75
2018-12-13T02:31:57.942Z,1020.74
2018-12-13T02:32:57.931Z,1020.75
2018-12-13T02:33:57.921Z,1020.71
2018-12-13T02:34:57.910Z,1020.73
2018-12-13T02:35:57.954Z,1020.71
2018-12-13T02:36:57.887Z,1020.69
2018-12-13T02:37:57.875Z,1020.68
2018-12-13T02:38:57.862Z,1020.74
2018-12-13T02:39:57.855Z,1020.67
2018-12-13T02:40:57.859Z,1020.71
2018-12-13T02:41:57.836Z,1020.73
2018-12-13T02:42:57.820Z,1020.71
2018-12-13T02:43:57.821Z,1020.74
2018-12-13T02:44:57.800Z,1020.71
2018-12-13T02:45:57.802Z,1020.73
2018-12-13T02:46:57.781Z,1020.70
2018-12-13T02:47:57.840Z,1020.74
2018-12-13T02:48:57.757Z,1020.71
2018-12-13T02:49:57.751Z,1020.74
2018-12-13T02:50:57.767Z,1020.71
2018-12-13T02:51:57.724Z,1020.67
2018-12-13T02:52:57.787Z,1020.74
2018-12-13T02:53:57.710Z,1020.74
2018-12-13T02:54:57.698Z,1020.72
2018-12-13T02:55:57.687Z,1020.72
2018-12-13T02:56:57.685Z,1020.72
2018-12-13T02:57:57.658Z,1020.70
2018-12-13T02:58:57.659Z,1020.72
2018-12-13T02:59:57.646Z,1020.72
2018-12-13T03:00:57.640Z,1020.68
2018-12-13T03:01:57.635Z,1020.67
2018-12-13T03:02:57.610Z,1020.68
2018-12-13T03:03:57.600Z,1020.63
2018-12-13T03:04:57.591Z,1020.62
2018-12-13T03:05:57.580Z,1020.58
2018-12-13T03:06:57.591Z,1020.57
2018-12-13T03:07:57.565Z,1020.60
2018-12-13T03:08:57.560Z,1020.58
2018-12-13T03:09:57.544Z,1020.58
2018-12-13T03:10:57.529Z,1020.58
2018-12-13T03:11:57.527Z,1020.57
2018-12-13T03:12:57.506Z,1020.57
2018-12-13T03:13:57.494Z,1020.58
2018-12-13T03:14:57.481Z,1020.55
2018-12-13T03:15:57.468Z,1020.55
2018-12-13T03:16:57.475Z,1020.57
2018-12-13T03:17:57.445Z,1020.60
2018-12-13T03:18:57.435Z,1020.57
2018-12-13T03:19:57.428Z,1020.56
2018-12-13T03:20:57.412Z,1020.58
2018-12-13T03:21:57.417Z,1020.60
2018-12-13T03:22:57.399Z,1020.57
2018-12-13T03:23:57.385Z,1020.53
2018-12-13T03:24:57.373Z,1020.51
2018-12-13T03:25:57.364Z,1020.48
2018-12-13T03:26:57.369Z,1020.50
2018-12-13T03:27:57.340Z,1020.50
2018-12-13T03:28:57.330Z,1020.50
2018-12-13T03:29:57.328Z,1020.50
2018-12-13T03:30:57.307Z,1020.45
2018-12-13T03:31:57.321Z,1020.53
2018-12-13T03:32:57.293Z,1020.49
2018-12-13T03:33:57.286Z,1020.49
2018-12-13T03:34:57.269Z,1020.50
2018-12-13T03:35:57.255Z,1020.52
2018-12-13T03:36:57.261Z,1020.50
2018-12-13T03:37:57.235Z,1020.53
2018-12-13T03:38:57.221Z,1020.48
2018-12-13T03:39:57.216Z,1020.47
2018-12-13T03:40:57.202Z,1020.54
2018-12-13T03:41:57.219Z,1020.47
2018-12-13T03:42:57.183Z,1020.50
2018-12-13T03:43:57.173Z,1020.45
2018-12-13T03:44:57.174Z,1020.49
2018-12-13T03:45:57.161Z,1020.41
2018-12-13T03:46:57.138Z,1020.44
2018-12-13T03:47:57.140Z,1020.45
2018-12-13T03:48:57.115Z,1020.38
2018-12-13T03:49:57.107Z,1020.43
2018-12-13T03:50:57.099Z,1020.40
2018-12-13T03:51:57.091Z,1020.42
2018-12-13T03:52:57.088Z,1020.42
2018-12-13T03:53:57.065Z,1020.44
2018-12-13T03:54:57.050Z,1020.37
2018-12-13T03:55:57.047Z,1020.33
2018-12-13T03:56:57.027Z,1020.33
2018-12-13T03:57:57.035Z,1020.37
2018-12-13T03:58:57.012Z,1020.35
2018-12-13T03:59:57.004Z,1020.36
2018-12-13T04:00:56.991Z,1020.34
2018-12-13T04:01:56.975Z,1020.35
2018-12-13T04:02:56.977Z,1020.37
2018-12-13T04:03:56.951Z,1020.35
2018-12-13T04:04:56.948Z,1020.34
2018-12-13T04:05:56.936Z,1020.36
2018-12-13T04:06:56.923Z,1020.35
2018-12-13T04:07:56.923Z,1020.34
2018-12-13T04:08:56.899Z,1020.34
2018-12-13T04:09:56.894Z,1020.34
2018-12-13T04:10:56.881Z,1020.35
2018-12-13T04:11:56.874Z,1020.33
2018-12-13T04:12:56.868Z,1020.29
2018-12-13T04:13:56.846Z,1020.34
2018-12-13T04:14:56.839Z,1020.36
2018-12-13T04:15:56.826Z,1020.28
2018-12-13T04:16:56.815Z,1020.25
2018-12-13T04:17:56.816Z,1020.27
2018-12-13T04:18:56.791Z,1020.26
2018-12-13T04:19:56.782Z,1020.29
2018-12-13T04:20:56.777Z,1020.29
2018-12-13T04:21:56.762Z,1020.31
2018-12-13T04:22:56.785Z,1020.28
2018-12-13T04:23:56.741Z,1020.30
2018-12-13T04:24:56.727Z,1020.23
2018-12-13T04:25:56.722Z,1020.28
2018-12-13T04:26:56.700Z,1020.28
2018-12-13T04:27:56.697Z,1020.31
2018-12-13T04:28:56.701Z,1020.28
2018-12-13T04:29:56.676Z,1020.28
2018-12-13T04:30:56.659Z,1020.27
2018-12-13T04:31:56.651Z,1020.26
2018-12-13T04:32:56.644Z,1020.24
2018-12-13T04:33:56.639Z,1020.17
2018-12-13T04:34:56.616Z,1020.24
2018-12-13T04:35:56.613Z,1020.20
2018-12-13T04:36:56.597Z,1020.19
2018-12-13T04:37:56.584Z,1020.24
2018-12-13T04:38:56.585Z,1020.23
2018-12-13T04:39:56.576Z,1020.17
2018-12-13T04:40:56.572Z,1020.22
2018-12-13T04:41:56.544Z,1020.22
2018-12-13T04:42:56.537Z,1020.23
2018-12-13T04:43:56.537Z,1020.21
2018-12-13T04:44:56.520Z,1020.19
2018-12-13T04:45:56.498Z,1020.18
2018-12-13T04:46:56.487Z,1020.13
2018-12-13T04:47:56.477Z,1020.09
2018-12-13T04:48:56.482Z,1020.10
2018-12-13T04:49:56.469Z,1020.12
2018-12-13T04:50:56.457Z,1020.15
2018-12-13T04:51:56.439Z,1020.11
2018-12-13T04:52:56.439Z,1020.17
2018-12-13T04:53:56.425Z,1020.13
2018-12-13T04:54:56.397Z,1020.16
2018-12-13T04:55:56.391Z,1020.10
2018-12-13T04:56:56.378Z,1020.11
2018-12-13T04:57:56.374Z,1020.13
2018-12-13T04:58:56.370Z,1020.15
2018-12-13T04:59:56.350Z,1020.16
2018-12-13T05:00:56.338Z,1020.15
2018-12-13T05:01:56.331Z,1020.21
2018-12-13T05:02:56.313Z,1020.11
2018-12-13T05:03:56.340Z,1020.23
2018-12-13T05:04:56.294Z,1020.17
2018-12-13T05:05:56.288Z,1020.19
2018-12-13T05:06:56.273Z,1020.15
2018-12-13T05:07:56.263Z,1020.17
2018-12-13T05:08:56.265Z,1020.13
2018-12-13T05:09:56.274Z,1020.15
2018-12-13T05:10:56.227Z,1020.17
2018-12-13T05:11:56.213Z,1020.14
2018-12-13T05:12:56.215Z,1020.09
2018-12-13T05:13:56.204Z,1020.10
2018-12-13T05:14:56.224Z,1020.05
2018-12-13T05:15:56.177Z,1020.04
2018-12-13T05:16:56.165Z,1020.04
2018-12-13T05:17:56.152Z,1020.03
2018-12-13T05:18:56.148Z,1020.12
2018-12-13T05:19:56.160Z,1020.05
2018-12-13T05:20:56.131Z,1020.10
2018-12-13T05:21:56.116Z,1020.07
2018-12-13T05:22:56.120Z,1020.01
2018-12-13T05:23:56.110Z,1020.05
2018-12-13T05:24:56.099Z,1020.12
2018-12-13T05:25:56.070Z,1020.09
2018-12-13T05:26:56.058Z,1020.12
2018-12-13T05:27:56.048Z,1020.07
2018-12-13T05:28:56.053Z,1020.06
2018-12-13T05:29:56.041Z,1020.05
2018-12-13T05:30:56.030Z,1020.03
2018-12-13T05:31:56.010Z,1020.01
2018-12-13T05:32:55.996Z,1020.04
2018-12-13T05:33:55.982Z,1020.03
2018-12-13T05:34:55.981Z,1020.05
2018-12-13T05:35:55.961Z,1020.06
2018-12-13T05:36:55.948Z,1020.03
2018-12-13T05:37:55.936Z,1019.99
2018-12-13T05:38:55.934Z,1019.98
2018-12-13T05:39:55.931Z,1020.02
2018-12-13T05:40:55.911Z,1019.96
2018-12-13T05:41:55.910Z,1019.99
2018-12-13T05:42:55.895Z,1020.00
2018-12-13T05:43:55.876Z,1019.95
2018-12-13T05:44:55.886Z,1019.96
2018-12-13T05:45:55.853Z,1019.97
2018-12-13T05:46:55.844Z,1019.95
2018-12-13T05:47:55.830Z,1019.99
2018-12-13T05:48:55.820Z,1019.97
2018-12-13T05:49:55.821Z,1019.94
2018-12-13T05:50:55.796Z,1019.88
2018-12-13T05:51:55.784Z,1019.86
2018-12-13T05:52:55.782Z,1019.90
2018-12-13T05:53:55.765Z,1019.90
2018-12-13T05:54:55.777Z,1019.88
2018-12-13T05:55:55.748Z,1019.87
2018-12-13T05:56:55.733Z,1019.87
2018-12-13T05:57:55.724Z,1019.88
2018-12-13T05:58:55.710Z,1019.83
2018-12-13T05:59:55.698Z,1019.88
2018-12-13T06:00:56.820Z,1019.90
2018-12-13T06:01:55.682Z,1019.88
2018-12-13T06:02:55.669Z,1019.88
2018-12-13T06:03:55.656Z,1019.84
2018-12-13T06:04:55.644Z,1019.90
2018-12-13T06:05:55.653Z,1019.89
2018-12-13T06:06:55.628Z,1019.91
2018-12-13T06:07:55.617Z,1019.91
2018-12-13T06:08:55.611Z,1019.90
2018-12-13T06:09:55.597Z,1019.90
2018-12-13T06:10:55.602Z,1019.87
2018-12-13T06:11:55.572Z,1019.92
2018-12-13T06:12:55.563Z,1019.94
2018-12-13T06:13:55.552Z,1019.94
2018-12-13T06:14:55.542Z,1019.92
2018-12-13T06:15:55.544Z,1019.90
2018-12-13T06:16:55.524Z,1019.91
2018-12-13T06:17:55.509Z,1019.93
2018-12-13T06:18:55.502Z,1019.94
2018-12-13T06:19:55.508Z,1019.95
2018-12-13T06:20:55.499Z,1019.95
2018-12-13T06:21:55.467Z,1019.99
2018-12-13T06:22:55.454Z,1019.93
2018-12-13T06:23:55.450Z,1019.89
2018-12-13T06:24:55.492Z,1019.91
2018-12-13T06:25:55.487Z,1019.94
2018-12-13T06:26:55.443Z,1019.96
2018-12-13T06:27:55.443Z,1019.95
2018-12-13T06:28:55.444Z,1019.94
2018-12-13T06:29:58.960Z,1019.96
2018-12-13T06:30:55.384Z,1020.03
2018-12-13T06:31:55.357Z,1019.92
2018-12-13T06:32:55.357Z,1019.88
2018-12-13T06:33:55.345Z,1019.95
2018-12-13T06:34:55.326Z,1019.97
2018-12-13T06:35:55.340Z,1019.96
2018-12-13T06:36:55.309Z,1019.96
2018-12-13T06:38:01.077Z,1019.93
2018-12-13T06:38:56.281Z,1019.93
2018-12-13T06:39:55.272Z,1019.94
2018-12-13T06:40:55.273Z,1019.98
2018-12-13T06:41:55.255Z,1019.96
2018-12-13T06:42:55.275Z,1019.94
2018-12-13T06:43:55.233Z,1019.99
2018-12-13T06:44:55.221Z,1020.01
2018-12-13T06:45:55.222Z,1020.00
2018-12-13T06:46:55.196Z,1019.98
2018-12-13T06:47:55.185Z,1020.02
2018-12-13T06:48:55.173Z,1020.01
2018-12-13T06:49:55.163Z,1020.05
2018-12-13T06:50:55.165Z,1020.10
2018-12-13T06:51:55.141Z,1020.06
2018-12-13T06:52:55.140Z,1020.05
2018-12-13T06:53:55.128Z,1020.03
2018-12-13T06:54:55.108Z,1020.01
2018-12-13T06:55:55.110Z,1020.05
2018-12-13T06:56:55.087Z,1020.03
2018-12-13T06:57:55.074Z,1020.06
2018-12-13T06:58:55.068Z,1020.08
2018-12-13T06:59:55.052Z,1020.09
2018-12-13T07:00:55.063Z,1020.05
2018-12-13T07:01:55.066Z,1020.06
2018-12-13T07:02:55.021Z,1020.05
2018-12-13T07:03:55.018Z,1020.08
2018-12-13T07:04:55.000Z,1020.09
2018-12-13T07:05:55.060Z,1020.05
2018-12-13T07:06:54.976Z,1020.05
2018-12-13T07:07:54.975Z,1020.07
2018-12-13T07:08:54.957Z,1020.01
2018-12-13T07:09:54.953Z,1020.05
2018-12-13T07:10:54.947Z,1020.04
2018-12-13T07:11:54.928Z,1020.04
2018-12-13T07:12:54.921Z,1020.02
2018-12-13T07:13:54.898Z,1020.01
2018-12-13T07:14:54.891Z,1020.03
2018-12-13T07:15:54.895Z,1020.00
2018-12-13T07:16:54.868Z,1019.99
2018-12-13T07:17:54.860Z,1020.02
2018-12-13T07:18:54.869Z,1020.00
2018-12-13T07:19:54.836Z,1020.00
2018-12-13T07:20:54.864Z,1020.00
2018-12-13T07:21:54.819Z,1020.06
2018-12-13T07:22:54.805Z,1020.04
2018-12-13T07:23:54.814Z,1020.05
2018-12-13T07:24:54.965Z,1020.04
2018-12-13T07:25:54.804Z,1020.05
2018-12-13T07:26:54.797Z,1020.05
2018-12-13T07:27:54.761Z,1020.05
2018-12-13T07:28:54.742Z,1020.01
2018-12-13T07:29:54.729Z,1020.05
2018-12-13T07:30:54.720Z,1020.04
2018-12-13T07:31:54.719Z,1020.03
2018-12-13T07:32:54.734Z,1020.01
2018-12-13T07:33:54.689Z,1020.00
2018-12-13T07:35:01.103Z,1019.99
2018-12-13T07:35:55.668Z,1019.97
2018-12-13T07:36:54.673Z,1020.02
2018-12-13T07:37:54.648Z,1020.05
2018-12-13T07:38:54.629Z,1020.05
2018-12-13T07:39:54.643Z,1020.00
2018-12-13T07:40:54.621Z,1020.00
2018-12-13T07:41:54.623Z,1020.00
2018-12-13T07:42:54.591Z,1019.98
2018-12-13T07:43:54.583Z,1019.96
2018-12-13T07:44:54.569Z,1019.97
2018-12-13T07:45:54.569Z,1019.97
2018-12-13T07:46:54.570Z,1019.96
2018-12-13T07:47:54.538Z,1019.95
2018-12-13T07:48:56.597Z,1020.01
2018-12-13T07:49:54.521Z,1020.08
2018-12-13T07:50:54.508Z,1020.13
2018-12-13T07:51:54.510Z,1020.10
2018-12-13T07:52:54.491Z,1020.12
2018-12-13T07:53:54.480Z,1020.11
2018-12-13T07:54:54.465Z,1020.13
2018-12-13T07:55:54.463Z,1020.12
2018-12-13T07:56:54.457Z,1020.18
2018-12-13T07:57:54.437Z,1020.19
2018-12-13T07:58:54.420Z,1020.19
2018-12-13T07:59:54.414Z,1020.16
2018-12-13T08:00:54.400Z,1020.15
2018-12-13T08:01:54.406Z,1020.16
2018-12-13T08:02:54.388Z,1020.14
2018-12-13T08:03:54.369Z,1020.16
2018-12-13T08:04:54.361Z,1020.19
2018-12-13T08:05:54.359Z,1020.13
2018-12-13T08:06:54.364Z,1020.16
2018-12-13T08:07:54.328Z,1020.15
2018-12-13T08:08:54.328Z,1020.12
2018-12-13T08:09:54.343Z,1020.10
2018-12-13T08:10:54.296Z,1020.12
2018-12-13T08:11:54.291Z,1020.14
2018-12-13T08:12:54.298Z,1020.16
2018-12-13T08:13:54.267Z,1020.10
2018-12-13T08:14:54.248Z,1020.15
2018-12-13T08:15:54.242Z,1020.13
2018-12-13T08:16:54.235Z,1020.16
2018-12-13T08:17:54.240Z,1020.12
2018-12-13T08:18:54.217Z,1020.15
2018-12-13T08:19:54.209Z,1020.09
2018-12-13T08:20:54.185Z,1020.09
2018-12-13T08:21:54.176Z,1020.14
2018-12-13T08:22:54.185Z,1020.09
2018-12-13T08:23:54.155Z,1020.07
2018-12-13T08:24:54.149Z,1020.06
2018-12-13T08:25:54.137Z,1020.07
2018-12-13T08:26:54.119Z,1020.07
2018-12-13T08:27:54.149Z,1020.06
2018-12-13T08:28:54.102Z,1020.04
2018-12-13T08:29:54.088Z,1020.07
2018-12-13T08:30:54.091Z,1020.03
2018-12-13T08:31:54.090Z,1020.05
2018-12-13T08:32:54.079Z,1020.03
2018-12-13T08:33:54.049Z,1020.05
2018-12-13T08:34:54.046Z,1020.09
2018-12-13T08:35:54.033Z,1020.09
2018-12-13T08:36:54.012Z,1020.02
2018-12-13T08:37:54.775Z,1020.10
2018-12-13T08:38:54.094Z,1020.02
2018-12-13T08:39:54.074Z,1020.04
2018-12-13T08:40:54.058Z,1020.00
2018-12-13T08:41:54.314Z,1020.02
2018-12-13T08:42:54.006Z,1020.03
2018-12-13T08:43:53.951Z,1020.02
2018-12-13T08:44:53.943Z,1020.02
2018-12-13T08:45:53.989Z,1020.02
2018-12-13T08:46:53.943Z,1020.07
2018-12-13T08:47:53.930Z,1020.02
2018-12-13T08:48:53.893Z,1020.03
2018-12-13T08:49:53.890Z,1020.04
2018-12-13T08:50:54.343Z,1020.08
2018-12-13T08:51:54.170Z,1020.06
2018-12-13T08:52:54.482Z,1020.05
2018-12-13T08:53:53.851Z,1020.05
2018-12-13T08:54:53.914Z,1020.05
2018-12-13T08:55:53.824Z,1020.12
2018-12-13T08:56:53.809Z,1020.04
2018-12-13T08:57:53.821Z,1020.06
2018-12-13T08:58:53.796Z,1020.12
2018-12-13T08:59:53.783Z,1020.06
2018-12-13T09:00:53.766Z,1020.08
2018-12-13T09:01:53.764Z,1020.04
2018-12-13T09:02:53.777Z,1020.06
2018-12-13T09:03:53.736Z,1020.04
2018-12-13T09:04:53.747Z,1020.04
2018-12-13T09:05:53.712Z,1020.04
2018-12-13T09:06:53.704Z,1020.00
2018-12-13T09:07:53.692Z,1020.10
2018-12-13T09:08:53.709Z,1020.03
2018-12-13T09:09:53.681Z,1020.06
2018-12-13T09:10:53.688Z,1020.05
2018-12-13T09:11:53.658Z,1020.06
2018-12-13T09:12:53.645Z,1020.02
2018-12-13T09:13:54.475Z,1020.05
2018-12-13T09:14:53.626Z,1020.04
2018-12-13T09:15:53.727Z,1020.06
2018-12-13T09:16:53.602Z,1020.06
2018-12-13T09:17:53.620Z,1020.04
2018-12-13T09:18:53.590Z,1020.06
2018-12-13T09:19:53.654Z,1020.09
2018-12-13T09:20:53.554Z,1020.09
2018-12-13T09:21:53.558Z,1020.09
2018-12-13T09:22:53.536Z,1020.08
2018-12-13T09:23:53.541Z,1020.07
2018-12-13T09:24:53.695Z,1020.03
2018-12-13T09:25:53.521Z,1020.07
2018-12-13T09:26:53.495Z,1020.08
2018-12-13T09:27:53.484Z,1020.05
2018-12-13T09:28:53.838Z,1020.07
2018-12-13T09:29:54.172Z,1020.05
2018-12-13T09:30:53.464Z,1020.05
2018-12-13T09:31:53.444Z,1020.04
2018-12-13T09:32:53.428Z,1020.02
2018-12-13T09:33:53.444Z,1020.00
2018-12-13T09:34:53.405Z,1019.97
2018-12-13T09:35:53.389Z,1019.98
2018-12-13T09:36:53.387Z,1019.98
2018-12-13T09:37:53.375Z,1019.96
2018-12-13T09:38:53.377Z,1019.97
2018-12-13T09:39:53.352Z,1019.96
2018-12-13T09:40:53.342Z,1019.96
2018-12-13T09:41:53.339Z,1019.92
2018-12-13T09:42:53.319Z,1019.93
2018-12-13T09:43:53.322Z,1019.94
2018-12-13T09:44:53.300Z,1019.92
2018-12-13T09:45:53.288Z,1019.91
2018-12-13T09:46:53.277Z,1019.95
2018-12-13T09:47:53.281Z,1019.91
2018-12-13T09:48:53.273Z,1019.91
2018-12-13T09:49:53.250Z,1019.87
2018-12-13T09:50:53.231Z,1019.94
2018-12-13T09:51:53.229Z,1019.90
2018-12-13T09:52:53.218Z,1019.85
2018-12-13T09:53:53.210Z,1019.87
2018-12-13T09:54:53.205Z,1019.85
2018-12-13T09:55:53.177Z,1019.83
2018-12-13T09:56:53.177Z,1019.81
2018-12-13T09:57:53.159Z,1019.79
2018-12-13T09:58:53.178Z,1019.86
2018-12-13T09:59:53.140Z,1019.88
2018-12-13T10:00:53.132Z,1019.83
2018-12-13T10:01:53.116Z,1019.86
2018-12-13T10:02:53.101Z,1019.89
2018-12-13T10:03:53.112Z,1019.87
2018-12-13T10:04:53.081Z,1019.83
2018-12-13T10:05:53.075Z,1019.90
2018-12-13T10:06:53.055Z,1019.89
2018-12-13T10:07:53.050Z,1019.81
2018-12-13T10:08:53.059Z,1019.79
2018-12-13T10:09:53.043Z,1019.81
2018-12-13T10:10:53.031Z,1019.79
2018-12-13T10:11:53.027Z,1019.81
2018-12-13T10:12:53.010Z,1019.85
2018-12-13T10:13:53.040Z,1019.79
2018-12-13T10:14:53.061Z,1019.79
2018-12-13T10:15:52.975Z,1019.82
2018-12-13T10:16:52.949Z,1019.78
2018-12-13T10:17:52.988Z,1019.74
2018-12-13T10:18:53.062Z,1019.68
2018-12-13T10:19:52.924Z,1019.73
2018-12-13T10:20:52.912Z,1019.76
2018-12-13T10:21:52.900Z,1019.76
2018-12-13T10:22:52.887Z,1019.74
2018-12-13T10:23:52.901Z,1019.70
2018-12-13T10:24:52.869Z,1019.71
2018-12-13T10:25:59.401Z,1019.72
2018-12-13T10:26:53.913Z,1019.69
2018-12-13T10:27:52.850Z,1019.69
2018-12-13T10:28:52.821Z,1019.69
2018-12-13T10:29:52.834Z,1019.67
2018-12-13T10:30:52.853Z,1019.61
2018-12-13T10:31:52.815Z,1019.65
2018-12-13T10:32:52.782Z,1019.69
2018-12-13T10:33:52.765Z,1019.65
2018-12-13T10:34:52.846Z,1019.69
2018-12-13T10:35:52.748Z,1019.72
2018-12-13T10:36:52.731Z,1019.70
2018-12-13T10:37:52.725Z,1019.64
2018-12-13T10:38:53.384Z,1019.67
2018-12-13T10:39:52.720Z,1019.63
2018-12-13T10:40:52.702Z,1019.64
2018-12-13T10:41:52.712Z,1019.63
2018-12-13T10:42:52.663Z,1019.58
2018-12-13T10:43:52.698Z,1019.58
2018-12-13T10:44:52.708Z,1019.60
2018-12-13T10:45:52.678Z,1019.53
2018-12-13T10:46:54.071Z,1019.60
2018-12-13T10:47:52.624Z,1019.54
2018-12-13T10:48:52.614Z,1019.52
2018-12-13T10:49:52.623Z,1019.54
2018-12-13T10:50:52.609Z,1019.48
2018-12-13T10:51:52.587Z,1019.51
2018-12-13T10:52:52.599Z,1019.49
2018-12-13T10:53:52.590Z,1019.54
2018-12-13T10:54:52.588Z,1019.50
2018-12-13T10:55:52.547Z,1019.50
2018-12-13T10:56:52.524Z,1019.42
2018-12-13T10:57:52.508Z,1019.39
2018-12-13T10:58:52.505Z,1019.41
2018-12-13T10:59:52.487Z,1019.39
2018-12-13T11:00:52.494Z,1019.39
2018-12-13T11:01:52.479Z,1019.33
2018-12-13T11:02:52.459Z,1019.41
2018-12-13T11:03:52.487Z,1019.38
2018-12-13T11:04:52.455Z,1019.39
2018-12-13T11:05:52.449Z,1019.38
2018-12-13T11:06:52.481Z,1019.30
2018-12-13T11:07:52.455Z,1019.36
2018-12-13T11:08:52.426Z,1019.34
2018-12-13T11:09:52.462Z,1019.38
2018-12-13T11:10:52.475Z,1019.37
2018-12-13T11:11:52.459Z,1019.41
2018-12-13T11:12:52.416Z,1019.36
2018-12-13T11:13:52.359Z,1019.34
2018-12-13T11:14:52.475Z,1019.45
2018-12-13T11:15:52.338Z,1019.35
2018-12-13T11:16:52.313Z,1019.39
2018-12-13T11:17:52.383Z,1019.38
2018-12-13T11:18:52.335Z,1019.38
2018-12-13T11:19:52.389Z,1019.34
2018-12-13T11:20:52.308Z,1019.36
2018-12-13T11:21:52.261Z,1019.39
2018-12-13T11:22:52.284Z,1019.39
2018-12-13T11:23:52.317Z,1019.32
2018-12-13T11:24:52.246Z,1019.38
2018-12-13T11:25:52.275Z,1019.41
2018-12-13T11:26:52.222Z,1019.36
2018-12-13T11:27:52.187Z,1019.39
2018-12-13T11:28:52.268Z,1019.46
2018-12-13T11:29:52.213Z,1019.40
2018-12-13T11:30:52.260Z,1019.38
2018-12-13T11:31:52.148Z,1019.38
2018-12-13T11:32:52.148Z,1019.34
2018-12-13T11:33:52.173Z,1019.40
2018-12-13T11:34:52.151Z,1019.39
2018-12-13T11:35:52.200Z,1019.38
2018-12-13T11:36:52.099Z,1019.40
2018-12-13T11:37:52.120Z,1019.38
2018-12-13T11:38:52.100Z,1019.42
2018-12-13T11:39:52.119Z,1019.39
2018-12-13T11:40:52.109Z,1019.40
2018-12-13T11:41:52.054Z,1019.38
2018-12-13T11:42:52.045Z,1019.43
2018-12-13T11:43:52.029Z,1019.44
2018-12-13T11:44:52.055Z,1019.33
2018-12-13T11:45:52.062Z,1019.36
2018-12-13T11:46:52.020Z,1019.36
2018-12-13T11:47:51.995Z,1019.30
2018-12-13T11:48:51.979Z,1019.35
2018-12-13T11:49:51.996Z,1019.33
2018-12-13T11:50:51.951Z,1019.40
2018-12-13T11:51:51.982Z,1019.33
2018-12-13T11:52:51.936Z,1019.32
2018-12-13T11:53:51.934Z,1019.36
2018-12-13T11:54:51.899Z,1019.31
2018-12-13T11:55:51.942Z,1019.32
2018-12-13T11:56:51.903Z,1019.33
2018-12-13T11:57:51.893Z,1019.33
2018-12-13T11:58:51.912Z,1019.33
2018-12-13T11:59:51.859Z,1019.28
2018-12-13T12:00:51.846Z,1019.32
2018-12-13T12:01:51.950Z,1019.29
2018-12-13T12:02:51.932Z,1019.30
2018-12-13T12:03:51.807Z,1019.32
2018-12-13T12:04:51.834Z,1019.35
2018-12-13T12:05:51.819Z,1019.32